Web Počasí Slunečno.cz™ (Podmínky, ePrivacy) používá cookies a personalizace pro reklamní účely. Pohybem po stránce vyjadřujete souhlas. Odejít

Aktuální počasí v Česku a ve světě - METAR

Seznam meteostanic umístěných nejčasteji na letišti v ČR a ve světě

Vyhledat místa podle abecedy:
A B C D E F G H I J K L M N O P Q R S T U V W X Y Z

Filtrovat:

ID stanice:
a/nebo
Název místa (fulltext):
 
Místo (ID)Naposledy načteno 
Rarotonga I (NCRG) 04.12.2021 08:00 UTC Zobrazit METAR
NCRG 040800Z AUTO 30005KT 9999 DZ SCT012/// 24/23 Q1014
Reykjavik (BIRK) 04.12.2021 09:00 UTC Zobrazit METAR
BIRK 040900Z 09002KT 9999 FEW020 M04/M06 Q1003
Riga (EVRA) 04.12.2021 08:50 UTC Zobrazit METAR
EVRA 040850Z VRB02KT 4100 -SN BR SCT005 M04/M05 Q1003 NOSIG
Rimini (LIPR) 04.12.2021 08:50 UTC Zobrazit METAR
LIPR 040850Z VRB02KT CAVOK 08/03 Q1012
Riyadh (OERY) 04.12.2021 09:00 UTC Zobrazit METAR
OERY 040900Z 36002KT CAVOK 21/M02 Q1023 NOSIG
Road Town (TUPJ) 04.12.2021 01:00 UTC Zobrazit METAR
TUPJ 040100Z 06005KT 10SM SCT019 27/24 A2999 RMK Q1015 VIS16KM
Rodos (LGRP) 04.12.2021 08:50 UTC Zobrazit METAR
LGRP 040850Z VRB03KT 7000 -RA FEW010 BKN020 16/15 Q1015 NOSIG
Rome (LIRF) 04.12.2021 08:50 UTC Zobrazit METAR
LIRF 040850Z 09005KT CAVOK 07/04 Q1014 NOSIG
Roseau (TDCF) 03.12.2021 20:00 UTC Zobrazit METAR
TDCF 032000Z 33002KT 9999 29/23 Q1010
Rotterdam (EHRD) 04.12.2021 08:55 UTC Zobrazit METAR
EHRD 040855Z AUTO 18006KT 130V230 2500 BR OVC002 05/05 Q0995 TEMPO 1200 OVC002
Rzeszow (EPRZ) 04.12.2021 09:00 UTC Zobrazit METAR
EPRZ 040900Z 20014KT CAVOK 00/M06 Q1008
Reklama

Reklama


Newslettter

Počasí na Váš email

Každý den Vám pošleme předpověď
Emaily chodí ráno a bez reklamy



Odhlásit newsletter

Reklama